MRLB

Details ICAO MRLB (LIR)
Name Daniel Oduber Quiros Intl
Region Costa Rica
Timezone America/Costa_Rica (UTC-6.0)
Plans Departing 73
Arriving 108
Stats Elevation 270 ft / 82 m (AMSL)
Location 10.593289° -85.544410°
Runways 1
Magnetic Variation 1.127° W
Sunrise 2018-07-19 11:29:37 UTC / 2018-07-19 05:29:37 Local
Sunset 2018-07-20 00:09:31 UTC / 2018-07-19 18:09:31 Local
Advertisement - Login to hide

Runways

ID Width Length Bearing (true) Bearing (mag) Surface Threshold Offset Overrun Length
07 148 ft / 45 m 9,068 ft / 2,764 m 70.05° 71.18° Asphalt 0 ft / 0 m 0 ft / 0 m
25 148 ft / 45 m 9,068 ft / 2,764 m 250.05° 251.18° Asphalt 0 ft / 0 m 0 ft / 0 m

Map

Weather


0- 5 10 15 20 25 30 35+ Temperature / ° C

Clouds and Precipitation
Forecast for 2018-07-20 06:00 UTC. Updated an hour ago

Ground ~20,000 ft ~40,000 ft Winds

METAR

MRLB 200400Z 08012KT CAVOK 28/21 A2985 NOSIG

TAF

TAF MRLB 192300Z 2000/2024 07012KT 9999 SCT045 TX32/2019Z TN23/2010Z

Frequencies

Ground 121.70 MHz GND
Approach 119.80 MHz LIBERIA APP
Tower 118.80 MHz LIBERIA TWR
Warning: Do not use this data for real-world aviation or navigation. No guarantee of current accuracy is given.